createdAt,value
2023-07-30T00:02:10.777Z,97348.57
2023-07-30T00:05:37.097Z,97357.46
2023-07-30T00:09:33.379Z,97359.09
2023-07-30T00:12:58.352Z,97369.58
2023-07-30T00:16:35.842Z,97384.68
2023-07-30T00:20:13.913Z,97392.60
2023-07-30T00:23:52.559Z,97390.70
2023-07-30T00:27:47.747Z,97393.73
2023-07-30T00:31:13.898Z,97397.30
2023-07-30T00:34:51.494Z,97396.66
2023-07-30T00:38:29.096Z,97399.45
2023-07-30T00:42:26.146Z,97392.48
2023-07-30T00:45:51.835Z,97391.40
2023-07-30T00:49:29.575Z,97387.36
2023-07-30T00:53:09.987Z,97397.54
2023-07-30T00:56:54.302Z,97420.31
2023-07-30T01:00:23.473Z,97427.48
2023-07-30T01:04:02.238Z,97423.76
2023-07-30T01:07:37.724Z,97426.08
2023-07-30T01:11:16.077Z,97417.46
2023-07-30T01:14:55.888Z,97415.43
2023-07-30T01:18:30.856Z,97414.05
2023-07-30T01:22:08.435Z,97419.66
2023-07-30T01:25:48.745Z,97425.24
2023-07-30T01:29:29.145Z,97426.04
2023-07-30T01:33:21.839Z,97429.77
2023-07-30T01:36:49.021Z,97436.13
2023-07-30T01:40:26.832Z,97430.27
2023-07-30T01:44:03.081Z,97426.86
2023-07-30T01:47:40.793Z,97433.41
2023-07-30T01:51:18.509Z,97437.02
2023-07-30T01:55:15.302Z,97445.30
2023-07-30T01:58:40.614Z,97452.04
2023-07-30T02:02:37.183Z,97453.96
2023-07-30T02:06:03.901Z,97456.80
2023-07-30T02:09:41.446Z,97447.52
2023-07-30T02:13:20.354Z,97447.16
2023-07-30T02:16:56.750Z,97448.49
2023-07-30T02:20:34.500Z,97442.55
2023-07-30T02:24:12.912Z,97444.66
2023-07-30T02:27:49.682Z,97446.14
2023-07-30T02:31:28.740Z,97447.13
2023-07-30T02:35:05.753Z,97444.64
2023-07-30T02:38:43.183Z,97438.88
2023-07-30T02:42:21.841Z,97437.89
2023-07-30T02:46:00.291Z,97438.22
2023-07-30T02:49:55.864Z,97436.10
2023-07-30T02:53:20.619Z,97439.64
2023-07-30T02:56:59.480Z,97436.73
2023-07-30T03:00:41.525Z,97436.57
2023-07-30T03:04:14.150Z,97442.72
2023-07-30T03:08:11.252Z,97442.61
2023-07-30T03:11:36.926Z,97448.09
2023-07-30T03:15:14.635Z,97456.70
2023-07-30T03:18:51.989Z,97448.73
2023-07-30T03:22:29.680Z,97447.82
2023-07-30T03:26:07.268Z,97454.15
2023-07-30T03:29:45.514Z,97458.64
2023-07-30T03:33:46.483Z,97463.73
2023-07-30T03:37:12.475Z,97468.44
2023-07-30T03:40:50.641Z,97480.83
2023-07-30T03:44:28.034Z,97481.55
2023-07-30T03:48:05.629Z,97479.75
2023-07-30T03:51:43.082Z,97476.22
2023-07-30T03:55:20.628Z,97472.95
2023-07-30T03:58:58.312Z,97472.50
2023-07-30T04:02:36.095Z,97472.38
2023-07-30T04:06:13.865Z,97473.05
2023-07-30T04:09:51.357Z,97475.48
2023-07-30T04:13:29.641Z,97473.29
2023-07-30T04:17:25.649Z,97476.14
2023-07-30T04:20:51.546Z,97478.05
2023-07-30T04:24:28.314Z,97486.44
2023-07-30T04:28:24.981Z,97494.80
2023-07-30T04:31:50.080Z,97493.40
2023-07-30T04:35:46.740Z,97491.20
2023-07-30T04:39:13.567Z,97494.86
2023-07-30T04:42:49.524Z,97499.27
2023-07-30T04:46:45.925Z,97504.30
2023-07-30T04:50:10.879Z,97510.77
2023-07-30T04:53:48.544Z,97520.54
2023-07-30T04:57:26.940Z,97519.52
2023-07-30T05:01:03.829Z,97519.63
2023-07-30T05:05:00.655Z,97515.89
2023-07-30T05:08:25.381Z,97510.31
2023-07-30T05:12:03.324Z,97510.98
2023-07-30T05:15:59.628Z,97509.30
2023-07-30T05:19:24.622Z,97506.20
2023-07-30T05:23:03.458Z,97503.34
2023-07-30T05:26:39.869Z,97498.28
2023-07-30T05:30:36.352Z,97507.41
2023-07-30T05:34:01.625Z,97518.90
2023-07-30T05:37:57.989Z,97519.48
2023-07-30T05:41:22.948Z,97521.45
2023-07-30T05:45:00.940Z,97526.62
2023-07-30T05:48:57.729Z,97530.06
2023-07-30T05:52:41.936Z,97528.90
2023-07-30T05:56:07.136Z,97527.67
2023-07-30T05:59:44.785Z,97532.56
2023-07-30T06:03:22.649Z,97535.98
2023-07-30T06:07:05.999Z,97535.61
2023-07-30T06:10:39.310Z,97532.30
2023-07-30T06:14:15.594Z,97523.98
2023-07-30T06:17:53.432Z,97522.13
2023-07-30T06:21:30.714Z,97529.14
2023-07-30T06:25:08.607Z,97529.28
2023-07-30T06:28:46.073Z,97526.97
2023-07-30T06:32:24.930Z,97536.80
2023-07-30T06:36:01.614Z,97538.85
2023-07-30T06:39:57.963Z,97542.48
2023-07-30T06:43:22.827Z,97544.13
2023-07-30T06:47:01.060Z,97544.96
2023-07-30T06:50:38.328Z,97539.83
2023-07-30T06:54:35.936Z,97541.81
2023-07-30T06:58:02.040Z,97543.63
2023-07-30T07:01:39.727Z,97548.36
2023-07-30T07:05:17.199Z,97552.06
2023-07-30T07:08:55.159Z,97553.08
2023-07-30T07:12:51.393Z,97555.04
2023-07-30T07:16:16.470Z,97551.09
2023-07-30T07:19:54.149Z,97545.76
2023-07-30T07:23:50.699Z,97539.48
2023-07-30T07:27:15.590Z,97543.73
2023-07-30T07:30:53.189Z,97547.17
2023-07-30T07:34:30.882Z,97546.77
2023-07-30T07:38:08.812Z,97551.26
2023-07-30T07:41:46.225Z,97556.54
2023-07-30T07:45:42.850Z,97559.64
2023-07-30T07:49:09.749Z,97557.05
2023-07-30T07:52:45.006Z,97546.55
2023-07-30T07:56:22.848Z,97545.86
2023-07-30T08:00:00.531Z,97540.91
2023-07-30T08:03:38.264Z,97545.77
2023-07-30T08:07:16.026Z,97551.94
2023-07-30T08:10:54.273Z,97554.71
2023-07-30T08:14:32.393Z,97555.20
2023-07-30T08:18:09.622Z,97548.54
2023-07-30T08:21:46.714Z,97545.63
2023-07-30T08:25:24.275Z,97544.77
2023-07-30T08:29:01.991Z,97539.94
2023-07-30T08:32:58.925Z,97538.73
2023-07-30T08:36:24.227Z,97541.88
2023-07-30T08:40:01.635Z,97541.89
2023-07-30T08:43:39.563Z,97549.33
2023-07-30T08:47:36.422Z,97547.64
2023-07-30T08:51:22.352Z,97551.57
2023-07-30T08:54:51.329Z,97554.52
2023-07-30T08:58:28.197Z,97557.38
2023-07-30T09:02:34.013Z,97565.27
2023-07-30T09:05:59.183Z,97566.89
2023-07-30T09:09:56.084Z,97568.52
2023-07-30T09:13:24.756Z,97572.25
2023-07-30T09:16:59.562Z,97573.81
2023-07-30T09:20:40.712Z,97569.42
2023-07-30T09:24:22.727Z,97570.16
2023-07-30T09:28:10.769Z,97571.35
2023-07-30T09:31:56.111Z,97566.99
2023-07-30T09:35:40.146Z,97560.83
2023-07-30T09:39:05.080Z,97559.13
2023-07-30T09:42:49.218Z,97558.91
2023-07-30T09:46:20.374Z,97552.17
2023-07-30T09:49:58.025Z,97551.48
2023-07-30T09:53:36.256Z,97545.53
2023-07-30T09:57:13.240Z,97549.13
2023-07-30T10:00:51.896Z,97548.20
2023-07-30T10:04:50.537Z,97547.52
2023-07-30T10:08:22.772Z,97547.00
2023-07-30T10:12:25.166Z,97546.11
2023-07-30T10:16:12.145Z,97549.36
2023-07-30T10:19:37.349Z,97545.80
2023-07-30T10:23:33.653Z,97543.98
2023-07-30T10:27:06.894Z,97539.74
2023-07-30T10:31:03.851Z,97540.97
2023-07-30T10:34:47.953Z,97533.00
2023-07-30T10:38:31.787Z,97532.27
2023-07-30T10:42:01.831Z,97531.82
2023-07-30T10:45:34.812Z,97535.24
2023-07-30T10:49:13.306Z,97535.42
2023-07-30T10:52:49.884Z,97534.85
2023-07-30T10:56:46.819Z,97531.83
2023-07-30T11:00:12.990Z,97525.71
2023-07-30T11:04:15.772Z,97529.91
2023-07-30T11:07:50.490Z,97525.37
2023-07-30T11:11:42.979Z,97517.94
2023-07-30T11:15:08.264Z,97520.64
2023-07-30T11:18:47.693Z,97519.84
2023-07-30T11:22:34.240Z,97519.47
2023-07-30T11:26:20.478Z,97519.56
2023-07-30T11:29:55.651Z,97520.58
2023-07-30T11:33:23.610Z,97522.08
2023-07-30T11:37:01.124Z,97516.67
2023-07-30T11:40:58.195Z,97521.52
2023-07-30T11:44:41.250Z,97519.09
2023-07-30T11:48:26.325Z,97517.58
2023-07-30T11:51:52.555Z,97515.13
2023-07-30T11:55:39.373Z,97507.84
2023-07-30T11:59:08.601Z,97505.84
2023-07-30T12:02:44.465Z,97513.98
2023-07-30T12:06:43.617Z,97515.16
2023-07-30T12:10:27.358Z,97510.57
2023-07-30T12:13:52.623Z,97511.42
2023-07-30T12:17:30.145Z,97507.66
2023-07-30T12:21:26.270Z,97508.80
2023-07-30T12:24:50.951Z,97510.74
2023-07-30T12:28:28.671Z,97509.91
2023-07-30T12:32:28.491Z,97507.42
2023-07-30T12:35:54.303Z,97506.52
2023-07-30T12:39:30.855Z,97505.39
2023-07-30T12:43:10.219Z,97503.02
2023-07-30T12:46:46.105Z,97502.58
2023-07-30T12:50:42.854Z,97497.48
2023-07-30T12:54:26.300Z,97497.96
2023-07-30T12:57:51.238Z,97493.50
2023-07-30T13:01:29.179Z,97488.55
2023-07-30T13:05:07.016Z,97491.26
2023-07-30T13:08:44.297Z,97487.10
2023-07-30T13:12:41.075Z,97487.44
2023-07-30T13:16:24.763Z,97487.45
2023-07-30T13:20:08.854Z,97482.60
2023-07-30T13:23:34.045Z,97480.60
2023-07-30T13:27:11.929Z,97482.67
2023-07-30T13:30:52.012Z,97481.60
2023-07-30T13:34:26.981Z,97476.36
2023-07-30T13:38:25.829Z,97474.08
2023-07-30T13:42:09.948Z,97470.98
2023-07-30T13:45:35.073Z,97470.92
2023-07-30T13:49:31.584Z,97468.54
2023-07-30T13:53:15.869Z,97462.98
2023-07-30T13:57:03.871Z,97462.35
2023-07-30T14:00:48.115Z,97459.69
2023-07-30T14:04:12.814Z,97455.99
2023-07-30T14:08:09.437Z,97455.17
2023-07-30T14:11:34.112Z,97450.12
2023-07-30T14:15:32.076Z,97451.03
2023-07-30T14:18:57.276Z,97449.79
2023-07-30T14:22:54.581Z,97442.41
2023-07-30T14:26:19.750Z,97440.34
2023-07-30T14:29:57.577Z,97441.23
2023-07-30T14:33:35.341Z,97442.13
2023-07-30T14:37:32.235Z,97445.45
2023-07-30T14:40:57.444Z,97452.92
2023-07-30T14:44:35.990Z,97447.82
2023-07-30T14:48:12.884Z,97447.05
2023-07-30T14:52:09.484Z,97448.51
2023-07-30T14:55:34.544Z,97449.38
2023-07-30T14:59:12.203Z,97447.36
2023-07-30T15:02:50.290Z,97449.21
2023-07-30T15:06:32.660Z,97445.77
2023-07-30T15:10:05.934Z,97450.65
2023-07-30T15:14:01.823Z,97444.64
2023-07-30T15:17:26.861Z,97445.95
2023-07-30T15:21:04.877Z,97442.63
2023-07-30T15:25:01.566Z,97437.06
2023-07-30T15:28:26.886Z,97433.98
2023-07-30T15:32:04.988Z,97436.73
2023-07-30T15:35:41.990Z,97435.66
2023-07-30T15:39:38.515Z,97439.23
2023-07-30T15:43:04.640Z,97438.16
2023-07-30T15:46:41.401Z,97439.17
2023-07-30T15:50:18.877Z,97445.95
2023-07-30T15:53:56.704Z,97439.71
2023-07-30T15:57:34.292Z,97441.45
2023-07-30T16:01:31.403Z,97443.30
2023-07-30T16:04:56.292Z,97440.98
2023-07-30T16:08:34.890Z,97432.31
2023-07-30T16:12:13.712Z,97430.84
2023-07-30T16:15:49.150Z,97430.00
2023-07-30T16:19:26.972Z,97432.32
2023-07-30T16:23:05.366Z,97434.30
2023-07-30T16:26:42.892Z,97437.06
2023-07-30T16:30:19.856Z,97440.33
2023-07-30T16:33:57.580Z,97445.79
2023-07-30T16:37:35.294Z,97448.31
2023-07-30T16:41:12.917Z,97456.10
2023-07-30T16:44:52.348Z,97455.42
2023-07-30T16:48:28.259Z,97464.10
2023-07-30T16:52:24.854Z,97490.94
2023-07-30T16:55:49.754Z,97525.41
2023-07-30T16:59:27.361Z,97548.18
2023-07-30T17:03:08.121Z,97548.88
2023-07-30T17:06:42.847Z,97550.23
2023-07-30T17:10:40.568Z,97549.57
2023-07-30T17:14:05.487Z,97540.02
2023-07-30T17:18:02.579Z,97540.25
2023-07-30T17:21:27.717Z,97533.22
2023-07-30T17:25:05.850Z,97533.42
2023-07-30T17:28:42.801Z,97544.14
2023-07-30T17:32:20.755Z,97547.80
2023-07-30T17:36:03.010Z,97555.89
2023-07-30T17:39:37.100Z,97562.71
2023-07-30T17:43:14.738Z,97563.06
2023-07-30T17:46:51.243Z,97563.87
2023-07-30T17:50:32.277Z,97568.83
2023-07-30T17:54:06.681Z,97568.34
2023-07-30T17:57:44.206Z,97562.75
2023-07-30T18:01:40.876Z,97558.37
2023-07-30T18:05:06.171Z,97556.61
2023-07-30T18:09:03.679Z,97548.20
2023-07-30T18:12:28.655Z,97546.50
2023-07-30T18:16:24.982Z,97544.41
2023-07-30T18:19:49.959Z,97543.38
2023-07-30T18:23:27.756Z,97542.48
2023-07-30T18:27:05.700Z,97538.23
2023-07-30T18:30:43.060Z,97534.14
2023-07-30T18:34:39.559Z,97542.09
2023-07-30T18:38:05.224Z,97541.95
2023-07-30T18:42:01.131Z,97540.24
2023-07-30T18:45:48.079Z,97544.52
2023-07-30T18:49:32.603Z,97542.60
2023-07-30T18:52:57.557Z,97549.20
2023-07-30T18:56:35.044Z,97552.71
2023-07-30T19:00:13.496Z,97554.92
2023-07-30T19:04:09.458Z,97552.45
2023-07-30T19:07:53.574Z,97543.06
2023-07-30T19:11:37.565Z,97550.25
2023-07-30T19:15:22.537Z,97562.89
2023-07-30T19:18:47.187Z,97571.79
2023-07-30T19:22:24.982Z,97576.73
2023-07-30T19:26:02.709Z,97578.55
2023-07-30T19:29:40.188Z,97579.84
2023-07-30T19:33:39.478Z,97584.08
2023-07-30T19:37:04.751Z,97593.34
2023-07-30T19:40:41.934Z,97596.23
2023-07-30T19:44:38.983Z,97599.98
2023-07-30T19:48:23.858Z,97602.45
2023-07-30T19:52:08.467Z,97601.58
2023-07-30T19:55:52.042Z,97603.13
2023-07-30T19:59:35.675Z,97588.97
2023-07-30T20:03:19.908Z,97586.12
2023-07-30T20:06:45.192Z,97592.15
2023-07-30T20:10:22.578Z,97592.25
2023-07-30T20:14:00.396Z,97589.46
2023-07-30T20:17:39.977Z,97593.39
2023-07-30T20:21:34.579Z,97595.27
2023-07-30T20:24:59.329Z,97599.27
2023-07-30T20:28:36.991Z,97600.14
2023-07-30T20:32:33.524Z,97602.00
2023-07-30T20:35:58.450Z,97601.29
2023-07-30T20:39:56.707Z,97596.98
2023-07-30T20:43:42.292Z,97589.05
2023-07-30T20:47:25.893Z,97586.05
2023-07-30T20:51:10.677Z,97578.98
2023-07-30T20:54:55.679Z,97580.14
2023-07-30T20:58:22.604Z,97583.33
2023-07-30T21:02:17.225Z,97584.08
2023-07-30T21:05:42.703Z,97586.23
2023-07-30T21:09:39.130Z,97592.04
2023-07-30T21:13:23.015Z,97594.73
2023-07-30T21:16:47.831Z,97583.58
2023-07-30T21:20:25.668Z,97574.31
2023-07-30T21:24:21.982Z,97575.45
2023-07-30T21:28:06.888Z,97577.13
2023-07-30T21:31:50.488Z,97578.43
2023-07-30T21:35:34.130Z,97581.06
2023-07-30T21:38:59.232Z,97580.13
2023-07-30T21:42:36.906Z,97580.36
2023-07-30T21:46:33.583Z,97585.23
2023-07-30T21:50:17.366Z,97586.20
2023-07-30T21:54:01.489Z,97588.18
2023-07-30T21:57:46.867Z,97589.73
2023-07-30T22:01:30.627Z,97587.97
2023-07-30T22:04:55.779Z,97580.61
2023-07-30T22:08:52.122Z,97574.16
2023-07-30T22:12:35.929Z,97579.28
2023-07-30T22:16:20.171Z,97583.34
2023-07-30T22:19:44.815Z,97574.11
2023-07-30T22:23:22.440Z,97569.64
2023-07-30T22:27:19.166Z,97565.35
2023-07-30T22:31:02.943Z,97564.75
2023-07-30T22:34:46.408Z,97569.59
2023-07-30T22:38:11.690Z,97577.55
2023-07-30T22:41:49.146Z,97576.71
2023-07-30T22:45:26.771Z,97572.89
2023-07-30T22:49:23.579Z,97577.32
2023-07-30T22:52:48.362Z,97581.51
2023-07-30T22:56:26.105Z,97582.54
2023-07-30T23:00:05.895Z,97585.02
2023-07-30T23:03:42.470Z,97581.11
2023-07-30T23:07:38.068Z,97584.86
2023-07-30T23:11:21.483Z,97582.81
2023-07-30T23:14:46.658Z,97574.63
2023-07-30T23:18:24.851Z,97571.13
2023-07-30T23:22:04.875Z,97572.80
2023-07-30T23:25:39.603Z,97568.60
2023-07-30T23:29:17.235Z,97567.02
2023-07-30T23:32:55.179Z,97569.89
2023-07-30T23:36:32.627Z,97571.59
2023-07-30T23:40:29.246Z,97565.89
2023-07-30T23:44:12.912Z,97568.45
2023-07-30T23:47:37.744Z,97571.55
2023-07-30T23:51:15.590Z,97578.67
2023-07-30T23:55:11.976Z,97575.31
2023-07-30T23:58:36.816Z,97573.07
